• Join FlightAware (Why Join?)
  • Login
  • US Flag 
10:12AM EDT


 

Airport Tracker/Info


-or-


 

Live Flight TrackerFlight Track Log ✈ BER6124 ✈ 26-Jun-2013 ✈ EDDM / MUC - EDDK / CGN

Flight Track Log - Related Links

Times and Time Zones

All times are in EDT time to prevent confusion due to time zone crossing. See the BER6124 flight status page for this flight to view local times or setup timezone preferences in your user account.

Time Position Orientation Groundspeed Altitude Reporting Facility
EDT Latitude Longitude Course Direction KTS MPH feet Rate Location/Type
01:07PM 49.2483 10.2251 312° West  Level Estimated
01:08PM 49.3036 10.1257 310° West  Level Estimated
01:09PM 49.3587 10.0261 310° West  Level Estimated
01:10PM 49.4137 9.9262 310° West  Level Estimated
01:11PM 49.4686 9.8261 310° West  Level Estimated
01:12PM 49.5235 9.7258 310° West  Level Estimated
01:13PM 49.5783 9.6252 310° West  Level Estimated
01:14PM 49.6329 9.5245 310° West  Level Estimated
01:15PM 49.6875 9.4235 310° West  Level Estimated
01:16PM 49.7421 9.3223 310° West  Level Estimated
01:17PM 49.7965 9.2208 310° West  Level Estimated
01:18PM 49.8508 9.1191 310° West  Level Estimated
01:19PM 49.9050 9.0172 310° West  Level Estimated
01:20PM 49.9592 8.9151 310° West  Level Estimated
01:21PM 50.0133 8.8127 309° West  Level Estimated
01:22PM 50.0672 8.7101 309° West  Level Estimated
01:23PM 50.1211 8.6073 309° West  Level Estimated
01:24PM 50.1749 8.5042 309° West  Level Estimated
01:25PM 50.2286 8.4009 309° West  Level Estimated
01:26PM 50.2822 8.2974 309° West  Level Estimated
01:27PM 50.3357 8.1937 309° West  Level Estimated
01:28PM 50.3891 8.0897 309° West  Level Estimated
01:29PM 50.4425 7.9854 309° West  Level Estimated
01:30PM 50.4957 7.8810 309° West  Level Estimated
01:31PM 50.5489 7.7763 309° West  Level Estimated
01:32PM 50.6019 7.6714 309° West  Level Estimated
01:33PM 50.6549 7.5662 308° West  Level Estimated
01:34PM 50.7077 7.4608 308° West  Level Estimated
01:35PM 50.7605 7.3552 308° West  Level Estimated
01:36PM 50.8131 7.2493 308° West  Level Estimated
01:37PM 50.8657 7.1431 308° West  Level Estimated
01:38PM 50.8659 7.1427 309° West  Level Estimated
01:39PM 50.8659 7.1427 140° Southeast  Level Estimated
01:40PM 50.8659 7.1427 140° Southeast  Level Estimated
01:41PM 50.8659 7.1427 140° Southeast  Level Estimated
01:42PM 50.8659 7.1427 140° Southeast  Level Estimated
01:43PM 50.8659 7.1427 140° Southeast  Level Estimated
01:44PM 50.8659 7.1427 140° Southeast  Level Estimated
01:45PM 50.8659 7.1427 140° Southeast  Level Estimated
01:46PM 50.8659 7.1427 140° Southeast  Level Estimated
01:47PM 50.8659 7.1427 140° Southeast  Level Estimated
01:48PM 50.8659 7.1427 140° Southeast  Level Estimated
01:49PM 50.8659 7.1427 140° Southeast  Level Estimated
01:50PM 50.8659 7.1427 140° Southeast  Level Estimated
01:51PM 50.8659 7.1427 140° Southeast  Level Estimated
01:52PM 50.8659 7.1427 140° Southeast  Level Estimated
01:53PM 50.8659 7.1427 140° Southeast  Level Estimated